createdAt,value
2023-01-27T00:01:45.453Z,0.50
2023-01-27T00:04:19.345Z,0.50
2023-01-27T00:06:53.096Z,0.50
2023-01-27T00:09:26.414Z,0.50
2023-01-27T00:12:16.842Z,0.50
2023-01-27T00:14:49.940Z,0.50
2023-01-27T00:17:22.896Z,0.50
2023-01-27T00:19:55.806Z,0.50
2023-01-27T00:22:46.091Z,0.50
2023-01-27T00:25:18.964Z,0.50
2023-01-27T00:27:51.914Z,0.50
2023-01-27T00:30:25.678Z,0.50
2023-01-27T00:33:15.388Z,0.50
2023-01-27T00:35:50.736Z,0.50
2023-01-27T00:38:24.029Z,0.50
2023-01-27T00:41:14.172Z,0.50
2023-01-27T00:43:47.144Z,0.50
2023-01-27T00:46:20.988Z,0.50
2023-01-27T00:48:54.283Z,0.50
2023-01-27T00:51:27.411Z,0.50
2023-01-27T00:54:01.250Z,0.50
2023-01-27T00:56:34.107Z,0.50
2023-01-27T00:59:07.148Z,0.50
2023-01-27T01:01:42.740Z,0.50
2023-01-27T01:04:16.566Z,0.50
2023-01-27T01:06:49.573Z,0.50
2023-01-27T01:09:22.420Z,0.50
2023-01-27T01:11:55.346Z,0.50
2023-01-27T01:14:28.421Z,0.50
2023-01-27T01:17:01.527Z,0.50
2023-01-27T01:19:35.201Z,0.50
2023-01-27T01:22:08.300Z,0.50
2023-01-27T01:24:41.275Z,0.50
2023-01-27T01:27:15.222Z,0.50
2023-01-27T01:29:52.640Z,0.50
2023-01-27T01:32:25.581Z,0.50
2023-01-27T01:34:58.687Z,0.50
2023-01-27T01:37:31.724Z,0.50
2023-01-27T01:40:04.635Z,0.50
2023-01-27T01:43:00.557Z,0.50
2023-01-27T01:45:41.605Z,0.50
2023-01-27T01:48:22.890Z,0.50
2023-01-27T01:50:57.908Z,0.50
2023-01-27T01:53:33.440Z,0.50
2023-01-27T01:56:08.646Z,0.50
2023-01-27T02:01:15.678Z,0.50
2023-01-27T02:03:51.205Z,0.50
2023-01-27T02:06:24.661Z,0.53
2023-01-27T02:08:58.785Z,0.50
2023-01-27T02:11:32.084Z,0.50
2023-01-27T02:14:06.384Z,0.50
2023-01-27T02:16:39.863Z,0.50
2023-01-27T02:19:14.811Z,0.50
2023-01-27T02:21:48.859Z,0.50
2023-01-27T02:24:23.430Z,0.50
2023-01-27T02:26:56.677Z,0.50
2023-01-27T02:29:30.571Z,0.50
2023-01-27T02:32:07.909Z,0.50
2023-01-27T02:34:44.386Z,0.50
2023-01-27T02:37:18.309Z,0.50
2023-01-27T02:39:53.030Z,0.50
2023-01-27T02:42:26.072Z,0.50
2023-01-27T02:44:59.125Z,0.50
2023-01-27T02:47:32.149Z,0.50
2023-01-27T02:50:05.241Z,0.50
2023-01-27T02:52:38.323Z,0.50
2023-01-27T02:55:12.463Z,0.50
2023-01-27T02:57:45.702Z,0.50
2023-01-27T03:00:18.782Z,0.50
2023-01-27T03:02:52.226Z,0.50
2023-01-27T03:05:25.594Z,0.50
2023-01-27T03:07:58.379Z,0.50
2023-01-27T03:10:31.156Z,0.50
2023-01-27T03:13:04.183Z,0.50
2023-01-27T03:15:54.665Z,0.50
2023-01-27T03:18:27.784Z,0.50
2023-01-27T03:21:05.407Z,0.50
2023-01-27T03:23:40.573Z,0.50
2023-01-27T03:26:13.410Z,0.50
2023-01-27T03:28:47.699Z,0.50
2023-01-27T03:31:24.158Z,0.50
2023-01-27T03:34:01.990Z,0.50
2023-01-27T03:36:52.251Z,0.50
2023-01-27T03:39:42.472Z,0.50
2023-01-27T03:42:32.764Z,0.50
2023-01-27T03:45:23.166Z,0.50
2023-01-27T03:47:56.397Z,0.50
2023-01-27T03:50:30.459Z,0.50
2023-01-27T03:53:06.966Z,0.50
2023-01-27T03:55:40.356Z,0.50
2023-01-27T03:58:24.391Z,0.50
2023-01-27T04:01:05.342Z,0.50
2023-01-27T04:03:57.061Z,0.50
2023-01-27T04:06:49.301Z,0.50
2023-01-27T04:09:27.180Z,0.50
2023-01-27T04:12:05.058Z,0.50
2023-01-27T04:14:43.632Z,0.50
2023-01-27T04:17:21.162Z,0.50
2023-01-27T04:19:54.051Z,0.50
2023-01-27T04:22:26.920Z,0.50
2023-01-27T04:24:59.843Z,0.50
2023-01-27T04:27:32.878Z,0.50
2023-01-27T04:30:06.815Z,0.50
2023-01-27T04:32:39.695Z,0.50
2023-01-27T04:35:13.262Z,0.50
2023-01-27T04:37:46.359Z,0.50
2023-01-27T04:40:19.523Z,0.50
2023-01-27T04:42:52.706Z,0.50
2023-01-27T04:45:25.816Z,0.50
2023-01-27T04:47:58.915Z,0.60
2023-01-27T04:50:31.971Z,0.50
2023-01-27T04:53:04.760Z,0.50
2023-01-27T04:55:37.719Z,0.50
2023-01-27T04:58:10.912Z,0.50
2023-01-27T05:00:43.998Z,0.50
2023-01-27T05:03:17.136Z,0.50
2023-01-27T05:05:50.265Z,0.50
2023-01-27T05:08:23.479Z,0.50
2023-01-27T05:10:56.363Z,0.50
2023-01-27T05:13:29.237Z,0.50
2023-01-27T05:16:19.294Z,0.50
2023-01-27T05:18:53.790Z,0.50
2023-01-27T05:21:29.359Z,0.50
2023-01-27T05:24:04.500Z,0.50
2023-01-27T05:26:37.388Z,0.50
2023-01-27T05:29:10.310Z,0.50
2023-01-27T05:31:46.659Z,0.50
2023-01-27T05:34:19.780Z,0.53
2023-01-27T05:36:53.520Z,0.50
2023-01-27T05:39:26.376Z,0.50
2023-01-27T05:41:59.424Z,0.50
2023-01-27T05:44:32.382Z,0.50
2023-01-27T05:47:05.401Z,0.50
2023-01-27T05:49:38.869Z,0.50
2023-01-27T05:52:11.786Z,0.50
2023-01-27T05:54:44.869Z,0.60
2023-01-27T05:57:17.775Z,0.50
2023-01-27T05:59:50.612Z,0.50
2023-01-27T06:02:23.700Z,0.50
2023-01-27T06:04:56.699Z,0.50
2023-01-27T06:07:30.344Z,0.50
2023-01-27T06:10:03.733Z,0.50
2023-01-27T06:12:37.366Z,0.50
2023-01-27T06:15:11.134Z,0.50
2023-01-27T06:17:44.251Z,0.50
2023-01-27T06:20:17.794Z,0.50
2023-01-27T06:22:52.031Z,0.50
2023-01-27T06:25:24.934Z,0.50
2023-01-27T06:27:58.983Z,0.50
2023-01-27T06:30:31.977Z,0.50
2023-01-27T06:33:04.912Z,0.50
2023-01-27T06:35:38.840Z,0.50
2023-01-27T06:38:14.644Z,0.50
2023-01-27T06:40:47.485Z,0.50
2023-01-27T06:43:20.334Z,0.50
2023-01-27T06:46:00.330Z,0.50
2023-01-27T06:48:32.125Z,0.50
2023-01-27T06:51:04.897Z,0.50
2023-01-27T06:53:38.858Z,0.50
2023-01-27T06:56:12.043Z,0.50
2023-01-27T06:58:45.057Z,0.50
2023-01-27T07:01:18.034Z,0.50
2023-01-27T07:03:51.130Z,0.50
2023-01-27T07:06:24.384Z,0.50
2023-01-27T07:08:57.294Z,0.50
2023-01-27T07:11:30.283Z,0.50
2023-01-27T07:14:03.297Z,0.50
2023-01-27T07:16:36.237Z,0.50
2023-01-27T07:19:09.382Z,0.60
2023-01-27T07:21:42.193Z,0.50
2023-01-27T07:24:15.587Z,0.50
2023-01-27T07:26:49.418Z,0.50
2023-01-27T07:29:22.421Z,0.50
2023-01-27T07:31:55.799Z,0.50
2023-01-27T07:34:28.570Z,0.50
2023-01-27T07:37:01.461Z,0.50
2023-01-27T07:39:35.233Z,0.50
2023-01-27T07:42:08.530Z,0.50
2023-01-27T07:44:41.681Z,0.50
2023-01-27T07:47:14.685Z,0.50
2023-01-27T07:49:49.798Z,0.50
2023-01-27T07:52:22.905Z,0.50
2023-01-27T07:54:55.770Z,0.50
2023-01-27T07:57:28.790Z,0.60
2023-01-27T08:00:01.644Z,0.50
2023-01-27T08:02:34.747Z,0.50
2023-01-27T08:05:07.951Z,0.50
2023-01-27T08:07:41.503Z,0.50
2023-01-27T08:10:15.253Z,0.50
2023-01-27T08:12:48.224Z,0.50
2023-01-27T08:15:21.166Z,0.50
2023-01-27T08:18:00.822Z,0.50
2023-01-27T08:20:34.299Z,0.50
2023-01-27T08:23:07.169Z,0.50
2023-01-27T08:25:39.907Z,0.50
2023-01-27T08:28:15.096Z,0.50
2023-01-27T08:30:48.056Z,0.60
2023-01-27T08:33:21.445Z,0.50
2023-01-27T08:35:54.680Z,0.50
2023-01-27T08:38:27.489Z,0.60
2023-01-27T08:41:00.501Z,0.60
2023-01-27T08:43:33.367Z,0.50
2023-01-27T08:46:06.439Z,0.60
2023-01-27T08:48:40.187Z,0.50
2023-01-27T08:51:14.741Z,0.50
2023-01-27T08:53:47.579Z,0.50
2023-01-27T08:56:23.119Z,0.50
2023-01-27T08:58:56.601Z,0.50
2023-01-27T09:01:30.000Z,0.50
2023-01-27T09:04:03.096Z,0.50
2023-01-27T09:06:36.266Z,0.60
2023-01-27T09:09:12.747Z,0.50
2023-01-27T09:11:47.071Z,0.50
2023-01-27T09:14:20.655Z,0.60
2023-01-27T09:16:53.396Z,0.50
2023-01-27T09:19:26.379Z,0.50
2023-01-27T09:21:59.798Z,0.50
2023-01-27T09:24:32.723Z,0.50
2023-01-27T09:27:05.819Z,0.60
2023-01-27T09:29:38.880Z,0.50
2023-01-27T09:32:13.014Z,0.60
2023-01-27T09:34:45.980Z,0.60
2023-01-27T09:37:19.390Z,0.60
2023-01-27T09:39:56.903Z,0.60
2023-01-27T09:42:55.993Z,0.60
2023-01-27T09:45:36.905Z,0.60
2023-01-27T09:48:17.774Z,0.50
2023-01-27T09:51:07.663Z,0.60
2023-01-27T09:53:45.133Z,0.60
2023-01-27T09:56:28.777Z,0.60
2023-01-27T09:59:13.822Z,0.50
2023-01-27T10:02:13.172Z,0.57
2023-01-27T10:04:48.199Z,0.53
2023-01-27T10:07:39.941Z,0.60
2023-01-27T10:10:31.484Z,0.60
2023-01-27T10:13:09.831Z,0.60
2023-01-27T10:16:16.458Z,0.60
2023-01-27T10:19:12.669Z,0.60
2023-01-27T10:21:50.420Z,0.60
2023-01-27T10:24:48.009Z,0.60
2023-01-27T10:27:38.127Z,0.60
2023-01-27T10:30:31.029Z,0.60
2023-01-27T10:33:14.720Z,0.60
2023-01-27T10:36:04.181Z,0.60
2023-01-27T10:38:48.310Z,0.60
2023-01-27T10:41:26.198Z,0.60
2023-01-27T10:44:04.360Z,0.60
2023-01-27T10:46:51.514Z,0.60
2023-01-27T10:49:26.373Z,0.90
2023-01-27T10:52:10.427Z,0.57
2023-01-27T10:55:04.053Z,0.60
2023-01-27T10:57:39.239Z,0.60
2023-01-27T11:03:02.568Z,0.60
2023-01-27T11:05:43.353Z,0.60
2023-01-27T11:08:21.351Z,0.60
2023-01-27T11:11:16.200Z,0.60
2023-01-27T11:13:49.622Z,0.60
2023-01-27T11:16:23.135Z,0.60
2023-01-27T11:18:57.779Z,0.60
2023-01-27T11:21:32.589Z,0.60
2023-01-27T11:24:10.449Z,0.60
2023-01-27T11:26:53.459Z,0.60
2023-01-27T11:29:37.209Z,0.60
2023-01-27T11:32:34.409Z,0.60
2023-01-27T11:35:15.150Z,0.60
2023-01-27T11:38:09.879Z,0.60
2023-01-27T11:40:36.285Z,0.60
2023-01-27T11:43:09.821Z,0.60
2023-01-27T11:45:42.993Z,0.60
2023-01-27T11:48:18.092Z,0.60
2023-01-27T11:50:50.970Z,0.60
2023-01-27T11:53:28.391Z,0.60
2023-01-27T11:56:06.410Z,0.60
2023-01-27T11:58:55.683Z,0.60
2023-01-27T12:01:31.222Z,0.60
2023-01-27T12:04:06.341Z,0.60
2023-01-27T12:06:43.972Z,0.60
2023-01-27T12:09:38.158Z,0.67
2023-01-27T12:12:19.538Z,0.60
2023-01-27T12:15:04.733Z,0.60
2023-01-27T12:17:45.210Z,0.60
2023-01-27T12:20:31.847Z,0.60
2023-01-27T12:23:24.824Z,0.70
2023-01-27T12:26:05.576Z,0.70
2023-01-27T12:28:43.392Z,0.60
2023-01-27T12:31:24.448Z,0.70
2023-01-27T12:34:08.723Z,0.60
2023-01-27T12:36:46.576Z,0.60
2023-01-27T12:39:45.460Z,0.70
2023-01-27T12:42:42.749Z,0.70
2023-01-27T12:45:32.984Z,0.70
2023-01-27T12:48:07.486Z,0.60
2023-01-27T12:50:42.552Z,0.67
2023-01-27T12:53:17.493Z,0.60
2023-01-27T12:56:10.187Z,0.70
2023-01-27T12:59:00.294Z,0.60
2023-01-27T13:01:42.085Z,0.60
2023-01-27T13:04:25.596Z,0.60
2023-01-27T13:07:09.546Z,0.60
2023-01-27T13:09:53.438Z,0.60
2023-01-27T13:12:29.927Z,0.70
2023-01-27T13:15:11.005Z,0.70
2023-01-27T13:17:54.704Z,0.70
2023-01-27T13:20:38.769Z,0.60
2023-01-27T13:23:31.569Z,0.70
2023-01-27T13:26:13.312Z,0.70
2023-01-27T13:28:52.602Z,0.70
2023-01-27T13:31:52.670Z,0.70
2023-01-27T13:34:36.345Z,0.70
2023-01-27T13:37:16.885Z,0.70
2023-01-27T13:40:06.821Z,0.70
2023-01-27T13:43:15.111Z,0.70
2023-01-27T13:46:01.829Z,0.70
2023-01-27T13:48:39.360Z,0.70
2023-01-27T13:51:26.143Z,0.70
2023-01-27T13:54:03.762Z,0.70
2023-01-27T13:56:51.839Z,0.70
2023-01-27T13:59:59.387Z,0.70
2023-01-27T14:02:50.495Z,0.70
2023-01-27T14:05:45.445Z,0.70
2023-01-27T14:08:29.774Z,0.70
2023-01-27T14:11:33.249Z,0.70
2023-01-27T14:14:43.616Z,0.70
2023-01-27T14:17:28.183Z,0.70
2023-01-27T14:20:02.874Z,0.70
2023-01-27T14:22:47.276Z,0.70
2023-01-27T14:25:28.516Z,0.70
2023-01-27T14:28:10.016Z,0.70
2023-01-27T14:30:51.187Z,0.70
2023-01-27T14:33:42.298Z,0.70
2023-01-27T14:36:16.545Z,0.70
2023-01-27T14:39:00.370Z,0.70
2023-01-27T14:41:35.187Z,0.70
2023-01-27T14:44:33.927Z,0.70
2023-01-27T14:47:25.872Z,0.70
2023-01-27T14:50:09.752Z,0.70
2023-01-27T14:52:50.173Z,0.70
2023-01-27T14:55:43.034Z,0.70
2023-01-27T14:58:17.860Z,0.70
2023-01-27T15:01:10.493Z,0.70
2023-01-27T15:03:50.899Z,0.70
2023-01-27T15:06:49.348Z,0.70
2023-01-27T15:09:43.945Z,0.70
2023-01-27T15:12:37.971Z,0.70
2023-01-27T15:15:44.308Z,0.70
2023-01-27T15:18:25.672Z,0.70
2023-01-27T15:21:16.675Z,0.70
2023-01-27T15:24:07.743Z,0.70
2023-01-27T15:26:41.968Z,0.70
2023-01-27T15:29:16.529Z,0.70
2023-01-27T15:31:51.433Z,0.70
2023-01-27T15:34:28.402Z,0.70
2023-01-27T15:37:15.635Z,0.70
2023-01-27T15:40:15.906Z,0.70
2023-01-27T15:42:56.363Z,0.70
2023-01-27T15:45:40.296Z,0.70
2023-01-27T15:48:15.202Z,0.70
2023-01-27T15:51:01.509Z,0.73
2023-01-27T15:53:48.540Z,0.70
2023-01-27T15:56:21.534Z,0.70
2023-01-27T15:59:05.680Z,0.70
2023-01-27T16:01:39.579Z,0.70
2023-01-27T16:04:23.276Z,0.70
2023-01-27T16:07:07.052Z,0.70
2023-01-27T16:10:11.193Z,0.70
2023-01-27T16:12:48.981Z,0.70
2023-01-27T16:15:27.162Z,0.70
2023-01-27T16:18:15.249Z,0.70
2023-01-27T16:21:02.678Z,0.80
2023-01-27T16:23:53.177Z,0.70
2023-01-27T16:26:40.728Z,0.70
2023-01-27T16:29:41.724Z,0.70
2023-01-27T16:32:23.013Z,0.70
2023-01-27T16:35:04.288Z,0.70
2023-01-27T16:37:39.428Z,0.70
2023-01-27T16:40:23.873Z,0.70
2023-01-27T16:43:01.417Z,0.70
2023-01-27T16:45:36.434Z,0.70
2023-01-27T16:48:11.552Z,0.70
2023-01-27T16:50:45.770Z,0.77
2023-01-27T16:53:26.328Z,0.70
2023-01-27T16:56:04.244Z,0.70
2023-01-27T16:58:46.610Z,0.70
2023-01-27T17:01:14.769Z,0.70
2023-01-27T17:03:48.781Z,0.70
2023-01-27T17:06:23.939Z,0.70
2023-01-27T17:08:56.804Z,0.70
2023-01-27T17:11:34.928Z,0.70
2023-01-27T17:14:21.302Z,0.70
2023-01-27T17:16:55.039Z,0.70
2023-01-27T17:19:30.058Z,0.70
2023-01-27T17:22:05.168Z,0.70
2023-01-27T17:24:39.849Z,0.70
2023-01-27T17:27:36.193Z,0.70
2023-01-27T17:30:24.172Z,0.70
2023-01-27T17:33:05.133Z,0.70
2023-01-27T17:35:42.477Z,0.70
2023-01-27T17:38:27.770Z,0.70
2023-01-27T17:41:00.628Z,0.70
2023-01-27T17:43:41.362Z,0.70
2023-01-27T17:46:17.380Z,0.70
2023-01-27T17:49:00.854Z,0.70
2023-01-27T17:51:42.274Z,0.70
2023-01-27T17:54:34.264Z,0.70
2023-01-27T17:57:36.727Z,0.70
2023-01-27T18:00:14.579Z,0.70
2023-01-27T18:02:57.924Z,0.70
2023-01-27T18:05:32.677Z,0.77
2023-01-27T18:08:06.943Z,0.70
2023-01-27T18:10:41.629Z,0.73
2023-01-27T18:13:25.071Z,0.70
2023-01-27T18:16:02.790Z,0.70
2023-01-27T18:18:37.905Z,0.80
2023-01-27T18:21:15.769Z,0.70
2023-01-27T18:23:57.594Z,0.70
2023-01-27T18:26:35.455Z,0.70
2023-01-27T18:29:31.141Z,0.70
2023-01-27T18:32:15.325Z,0.70
2023-01-27T18:34:53.255Z,0.70
2023-01-27T18:37:39.340Z,0.70
2023-01-27T18:40:23.697Z,0.70
2023-01-27T18:43:00.246Z,0.70
2023-01-27T18:45:33.256Z,0.70
2023-01-27T18:48:06.104Z,0.70
2023-01-27T18:50:40.939Z,0.70
2023-01-27T18:53:21.410Z,0.70
2023-01-27T18:55:54.550Z,0.70
2023-01-27T18:58:27.488Z,0.70
2023-01-27T19:01:01.571Z,0.70
2023-01-27T19:03:35.959Z,0.70
2023-01-27T19:06:15.880Z,0.70
2023-01-27T19:08:50.203Z,0.60
2023-01-27T19:11:23.121Z,0.67
2023-01-27T19:13:56.019Z,0.70
2023-01-27T19:16:32.382Z,0.70
2023-01-27T19:19:06.566Z,0.70
2023-01-27T19:21:39.431Z,0.70
2023-01-27T19:24:13.757Z,0.70
2023-01-27T19:26:47.747Z,0.70
2023-01-27T19:29:20.921Z,0.70
2023-01-27T19:31:53.865Z,0.70
2023-01-27T19:34:26.720Z,0.70
2023-01-27T19:36:59.657Z,0.70
2023-01-27T19:39:32.434Z,0.70
2023-01-27T19:42:05.381Z,0.70
2023-01-27T19:44:38.507Z,0.70
2023-01-27T19:47:15.374Z,0.70
2023-01-27T19:49:48.254Z,0.70
2023-01-27T19:52:21.525Z,0.70
2023-01-27T19:54:54.262Z,0.70
2023-01-27T19:57:28.491Z,0.70
2023-01-27T20:00:01.313Z,0.70
2023-01-27T20:02:34.287Z,0.60
2023-01-27T20:05:07.157Z,0.70
2023-01-27T20:07:39.963Z,0.70
2023-01-27T20:10:14.965Z,0.70
2023-01-27T20:12:48.026Z,0.70
2023-01-27T20:15:21.675Z,0.70
2023-01-27T20:17:54.993Z,0.70
2023-01-27T20:20:28.881Z,0.70
2023-01-27T20:23:02.002Z,0.70
2023-01-27T20:25:34.865Z,0.70
2023-01-27T20:28:07.840Z,0.60
2023-01-27T20:30:40.821Z,0.70
2023-01-27T20:33:16.268Z,0.70
2023-01-27T20:35:49.113Z,0.70
2023-01-27T20:38:21.862Z,0.70
2023-01-27T20:40:55.005Z,0.70
2023-01-27T20:43:35.236Z,0.70
2023-01-27T20:46:04.086Z,0.70
2023-01-27T20:48:37.332Z,0.70
2023-01-27T20:51:12.827Z,0.70
2023-01-27T20:53:47.696Z,0.70
2023-01-27T20:56:22.273Z,0.70
2023-01-27T20:58:56.156Z,0.70
2023-01-27T21:01:29.421Z,0.70
2023-01-27T21:04:02.592Z,0.70
2023-01-27T21:06:35.588Z,0.70
2023-01-27T21:09:08.805Z,0.70
2023-01-27T21:11:41.877Z,0.70
2023-01-27T21:14:15.098Z,0.70
2023-01-27T21:16:48.399Z,0.70
2023-01-27T21:19:21.526Z,0.70
2023-01-27T21:21:55.206Z,0.70
2023-01-27T21:24:28.169Z,0.70
2023-01-27T21:27:01.197Z,0.70
2023-01-27T21:29:34.137Z,0.60
2023-01-27T21:32:06.975Z,0.70
2023-01-27T21:34:39.830Z,0.70
2023-01-27T21:37:15.152Z,0.70
2023-01-27T21:39:48.113Z,0.70
2023-01-27T21:42:26.250Z,0.70
2023-01-27T21:45:18.006Z,0.70
2023-01-27T21:47:51.841Z,0.70
2023-01-27T21:50:24.700Z,0.70
2023-01-27T21:55:47.931Z,0.77
2023-01-27T21:58:20.873Z,0.70
2023-01-27T22:00:53.922Z,0.70
2023-01-27T22:03:26.908Z,0.80
2023-01-27T22:05:59.754Z,0.77
2023-01-27T22:08:32.761Z,0.80
2023-01-27T22:11:12.283Z,0.80
2023-01-27T22:13:44.931Z,0.80
2023-01-27T22:16:21.965Z,0.80
2023-01-27T22:18:59.381Z,0.80
2023-01-27T22:21:32.498Z,0.80
2023-01-27T22:24:08.813Z,0.80
2023-01-27T22:26:41.681Z,0.90
2023-01-27T22:29:15.100Z,0.90
2023-01-27T22:31:47.982Z,0.90
2023-01-27T22:34:21.221Z,0.90
2023-01-27T22:36:54.149Z,0.90
2023-01-27T22:39:27.103Z,0.90
2023-01-27T22:42:00.027Z,0.80
2023-01-27T22:44:33.078Z,0.90
2023-01-27T22:47:06.127Z,0.90
2023-01-27T22:49:39.047Z,0.90
2023-01-27T22:52:11.936Z,0.93
2023-01-27T22:54:44.931Z,0.90
2023-01-27T22:57:17.931Z,0.90
2023-01-27T22:59:50.692Z,1.00
2023-01-27T23:02:28.349Z,1.10
2023-01-27T23:05:01.880Z,1.10
2023-01-27T23:07:34.705Z,1.10
2023-01-27T23:10:07.532Z,1.00
2023-01-27T23:12:40.792Z,1.20
2023-01-27T23:15:15.031Z,1.20
2023-01-27T23:17:48.183Z,1.30
2023-01-27T23:20:21.344Z,1.20
2023-01-27T23:22:55.316Z,1.30
2023-01-27T23:25:28.420Z,1.43
2023-01-27T23:28:01.698Z,1.43
2023-01-27T23:30:34.705Z,1.30
2023-01-27T23:33:07.567Z,1.30
2023-01-27T23:35:40.547Z,1.30
2023-01-27T23:38:30.415Z,1.27
2023-01-27T23:40:47.793Z,1.50
2023-01-27T23:43:23.340Z,1.40
2023-01-27T23:45:56.563Z,1.40
2023-01-27T23:48:29.589Z,1.50
2023-01-27T23:51:02.547Z,1.60
2023-01-27T23:53:35.813Z,1.50
2023-01-27T23:56:09.441Z,1.50
2023-01-27T23:58:42.320Z,1.50
